createdAt,value
2019-05-15T00:00:39.524Z,100510.83
2019-05-15T00:02:48.073Z,100513.11
2019-05-15T00:04:54.048Z,100510.47
2019-05-15T00:07:00.723Z,100512.22
2019-05-15T00:09:08.457Z,100508.77
2019-05-15T00:11:14.843Z,100505.66
2019-05-15T00:13:21.336Z,100499.92
2019-05-15T00:15:27.990Z,100496.01
2019-05-15T00:17:34.557Z,100489.45
2019-05-15T00:19:41.137Z,100494.27
2019-05-15T00:21:49.036Z,100497.75
2019-05-15T00:23:55.726Z,100497.36
2019-05-15T00:26:02.230Z,100503.52
2019-05-15T00:28:09.429Z,100494.27
2019-05-15T00:30:18.388Z,100494.72
2019-05-15T00:32:25.172Z,100492.55
2019-05-15T00:34:33.076Z,100487.27
2019-05-15T00:36:39.611Z,100481.08
2019-05-15T00:38:48.210Z,100479.30
2019-05-15T00:40:54.627Z,100467.39
2019-05-15T00:43:01.202Z,100472.28
2019-05-15T00:45:11.575Z,100468.75
2019-05-15T00:47:18.200Z,100467.83
2019-05-15T00:49:24.798Z,100463.44
2019-05-15T00:51:31.209Z,100455.03
2019-05-15T00:53:38.916Z,100452.33
2019-05-15T00:55:48.560Z,100460.27
2019-05-15T00:57:56.296Z,100455.00
2019-05-15T01:00:02.821Z,100447.09
2019-05-15T01:02:10.156Z,100444.03
2019-05-15T01:04:18.577Z,100436.55
2019-05-15T01:06:24.789Z,100436.12
2019-05-15T01:08:31.387Z,100441.39
2019-05-15T01:10:38.728Z,100440.05
2019-05-15T01:12:45.509Z,100437.86
2019-05-15T01:14:51.921Z,100437.41
2019-05-15T01:16:58.357Z,100429.89
2019-05-15T01:19:05.966Z,100431.17
2019-05-15T01:21:12.372Z,100427.61
2019-05-15T01:23:18.913Z,100430.25
2019-05-15T01:25:27.909Z,100438.16
2019-05-15T01:27:34.037Z,100438.16
2019-05-15T01:29:44.844Z,100446.03
2019-05-15T01:31:49.071Z,100439.48
2019-05-15T01:33:55.762Z,100447.38
2019-05-15T01:36:02.287Z,100435.48
2019-05-15T01:38:08.923Z,100435.52
2019-05-15T01:40:18.224Z,100432.85
2019-05-15T01:42:27.872Z,100433.74
2019-05-15T01:44:34.020Z,100434.17
2019-05-15T01:46:40.438Z,100423.63
2019-05-15T01:48:49.126Z,100426.27
2019-05-15T01:50:55.061Z,100424.05
2019-05-15T01:53:01.533Z,100421.42
2019-05-15T01:55:09.265Z,100417.47
2019-05-15T01:57:18.047Z,100413.97
2019-05-15T01:59:23.990Z,100413.08
2019-05-15T02:01:30.385Z,100408.23
2019-05-15T02:03:38.658Z,100411.34
2019-05-15T02:05:45.041Z,100402.55
2019-05-15T02:07:51.559Z,100403.43
2019-05-15T02:09:58.328Z,100403.86
2019-05-15T02:12:05.143Z,100399.44
2019-05-15T02:14:11.669Z,100395.45
2019-05-15T02:16:19.175Z,100395.92
2019-05-15T02:18:28.342Z,100399.41
2019-05-15T02:20:34.217Z,100392.82
2019-05-15T02:22:42.429Z,100392.82
2019-05-15T02:24:48.905Z,100395.92
2019-05-15T02:26:55.321Z,100396.77
2019-05-15T02:29:01.784Z,100387.09
2019-05-15T02:31:10.528Z,100382.70
2019-05-15T02:33:18.942Z,100379.25
2019-05-15T02:35:24.656Z,100370.42
2019-05-15T02:37:31.053Z,100367.78
2019-05-15T02:39:38.867Z,100370.84
2019-05-15T02:41:48.844Z,100365.14
2019-05-15T02:43:53.872Z,100362.08
2019-05-15T02:46:00.875Z,100369.13
2019-05-15T02:48:08.934Z,100367.32
2019-05-15T02:50:16.117Z,100351.54
2019-05-15T02:52:22.795Z,100357.30
2019-05-15T02:54:30.127Z,100359.45
2019-05-15T02:56:39.242Z,100352.46
2019-05-15T02:58:45.187Z,100353.78
2019-05-15T03:00:53.395Z,100345.45
2019-05-15T03:03:00.351Z,100353.34
2019-05-15T03:05:09.381Z,100357.30
2019-05-15T03:07:18.983Z,100344.98
2019-05-15T03:09:23.391Z,100347.62
2019-05-15T03:11:29.967Z,100355.98
2019-05-15T03:13:39.206Z,100352.98
2019-05-15T03:15:44.850Z,100349.03
2019-05-15T03:17:51.473Z,100351.66
2019-05-15T03:19:59.064Z,100352.52
2019-05-15T03:22:09.443Z,100353.45
2019-05-15T03:24:14.137Z,100348.20
2019-05-15T03:26:20.738Z,100343.79
2019-05-15T03:28:29.450Z,100341.13
2019-05-15T03:31:07.141Z,100341.55
2019-05-15T03:32:53.519Z,100336.70
2019-05-15T03:34:56.043Z,100335.42
2019-05-15T03:37:03.565Z,100322.21
2019-05-15T03:39:09.660Z,100330.98
2019-05-15T03:41:19.161Z,100323.09
2019-05-15T03:43:24.665Z,100330.12
2019-05-15T03:45:31.343Z,100328.34
2019-05-15T03:47:40.082Z,100325.67
2019-05-15T03:49:49.154Z,100329.69
2019-05-15T03:51:54.492Z,100334.07
2019-05-15T03:54:00.961Z,100337.14
2019-05-15T03:56:09.672Z,100334.07
2019-05-15T03:58:20.912Z,100334.10
2019-05-15T04:00:29.894Z,100338.52
2019-05-15T04:02:39.407Z,100333.64
2019-05-15T04:04:50.163Z,100336.31
2019-05-15T04:07:00.499Z,100327.12
2019-05-15T04:09:09.900Z,100335.45
2019-05-15T04:11:22.687Z,100337.66
2019-05-15T04:13:39.588Z,100335.52
2019-05-15T04:15:50.250Z,100331.10
2019-05-15T04:18:00.842Z,100332.88
2019-05-15T04:20:12.144Z,100334.20
2019-05-15T04:22:29.351Z,100335.58
2019-05-15T04:24:40.071Z,100342.56
2019-05-15T04:26:48.945Z,100335.52
2019-05-15T04:28:59.989Z,100329.88
2019-05-15T04:31:05.396Z,100338.61
2019-05-15T04:33:11.877Z,100335.13
2019-05-15T04:35:19.736Z,100328.92
2019-05-15T04:37:29.664Z,100328.53
2019-05-15T04:39:44.858Z,100328.55
2019-05-15T04:41:51.491Z,100322.83
2019-05-15T04:43:59.860Z,100317.12
2019-05-15T04:46:09.530Z,100314.45
2019-05-15T04:48:14.878Z,100307.89
2019-05-15T04:50:21.518Z,100304.89
2019-05-15T04:52:42.607Z,100305.75
2019-05-15T04:54:44.883Z,100303.11
2019-05-15T04:56:52.007Z,100302.22
2019-05-15T04:59:00.339Z,100304.00
2019-05-15T05:01:09.245Z,100301.85
2019-05-15T05:03:22.846Z,100307.12
2019-05-15T05:05:29.841Z,100309.36
2019-05-15T05:07:38.959Z,100307.61
2019-05-15T05:09:44.739Z,100312.03
2019-05-15T05:11:51.154Z,100308.53
2019-05-15T05:13:59.156Z,100311.60
2019-05-15T05:16:05.944Z,100306.35
2019-05-15T05:18:12.479Z,100312.55
2019-05-15T05:20:19.149Z,100312.11
2019-05-15T05:22:28.091Z,100312.57
2019-05-15T05:24:33.885Z,100310.42
2019-05-15T05:26:40.584Z,100307.84
2019-05-15T05:28:48.832Z,100311.40
2019-05-15T05:30:55.265Z,100310.08
2019-05-15T05:33:01.806Z,100314.47
2019-05-15T05:35:08.800Z,100309.22
2019-05-15T05:37:15.315Z,100307.01
2019-05-15T05:39:21.944Z,100308.77
2019-05-15T05:41:28.498Z,100306.13
2019-05-15T05:43:38.092Z,100305.72
2019-05-15T05:45:43.959Z,100306.17
2019-05-15T05:47:50.351Z,100311.08
2019-05-15T05:49:58.163Z,100300.56
2019-05-15T05:52:05.102Z,100307.21
2019-05-15T05:54:11.735Z,100304.16
2019-05-15T05:56:18.330Z,100298.03
2019-05-15T05:58:24.801Z,100301.63
2019-05-15T06:00:39.309Z,100306.58
2019-05-15T06:02:48.770Z,100298.27
2019-05-15T06:04:54.313Z,100299.61
2019-05-15T06:07:10.019Z,100296.89
2019-05-15T06:09:10.662Z,100291.61
2019-05-15T06:11:18.415Z,100298.22
2019-05-15T06:13:25.171Z,100295.58
2019-05-15T06:15:32.682Z,100291.27
2019-05-15T06:17:39.575Z,100289.97
2019-05-15T06:19:48.155Z,100289.61
2019-05-15T06:21:57.535Z,100285.30
2019-05-15T06:24:05.235Z,100285.37
2019-05-15T06:26:12.464Z,100288.49
2019-05-15T06:28:20.354Z,100293.38
2019-05-15T06:30:30.947Z,100292.54
2019-05-15T06:32:39.859Z,100294.77
2019-05-15T06:34:48.365Z,100292.16
2019-05-15T06:36:55.007Z,100283.44
2019-05-15T06:39:01.420Z,100291.41
2019-05-15T06:41:09.037Z,100290.02
2019-05-15T06:43:15.566Z,100281.18
2019-05-15T06:45:30.188Z,100287.31
2019-05-15T06:47:39.419Z,100280.28
2019-05-15T06:49:48.690Z,100280.28
2019-05-15T06:52:01.637Z,100279.31
2019-05-15T06:54:08.760Z,100280.23
2019-05-15T06:56:22.966Z,100282.94
2019-05-15T06:58:30.382Z,100285.56
2019-05-15T07:00:58.999Z,100285.58
2019-05-15T07:03:20.209Z,100286.42
2019-05-15T07:05:15.505Z,100288.13
2019-05-15T07:07:22.120Z,100286.42
2019-05-15T07:09:30.874Z,100276.75
2019-05-15T07:11:42.203Z,100282.51
2019-05-15T07:13:51.808Z,100279.06
2019-05-15T07:16:00.152Z,100279.47
2019-05-15T07:18:09.238Z,100273.86
2019-05-15T07:20:15.847Z,100278.72
2019-05-15T07:22:22.194Z,100271.30
2019-05-15T07:24:29.041Z,100270.51
2019-05-15T07:26:35.614Z,100270.51
2019-05-15T07:28:42.078Z,100278.02
2019-05-15T07:30:49.778Z,100270.65
2019-05-15T07:32:58.290Z,100268.80
2019-05-15T07:35:09.508Z,100274.16
2019-05-15T07:37:19.064Z,100266.27
2019-05-15T07:39:25.903Z,100259.77
2019-05-15T07:41:32.503Z,100257.12
2019-05-15T07:43:40.561Z,100257.66
2019-05-15T07:45:53.838Z,100252.33
2019-05-15T07:47:58.485Z,100251.05
2019-05-15T07:50:10.305Z,100254.54
2019-05-15T07:52:19.325Z,100247.37
2019-05-15T07:54:25.547Z,100244.73
2019-05-15T07:56:32.254Z,100249.23
2019-05-15T07:58:39.023Z,100239.91
2019-05-15T08:00:46.138Z,100246.52
2019-05-15T08:02:53.420Z,100245.64
2019-05-15T08:04:59.964Z,100249.11
2019-05-15T08:07:08.966Z,100248.20
2019-05-15T08:09:17.999Z,100253.94
2019-05-15T08:11:25.091Z,100252.61
2019-05-15T08:13:31.841Z,100249.81
2019-05-15T08:15:38.485Z,100245.75
2019-05-15T08:19:58.128Z,100240.09
2019-05-15T08:22:08.890Z,100243.61
2019-05-15T08:24:18.889Z,100245.34
2019-05-15T08:26:05.637Z,100248.41
2019-05-15T08:26:25.507Z,100238.80
2019-05-15T08:28:32.134Z,100239.19
2019-05-15T08:30:39.111Z,100239.63
2019-05-15T08:32:51.305Z,100238.30
2019-05-15T08:34:55.495Z,100232.55
2019-05-15T08:37:01.926Z,100232.13
2019-05-15T08:39:09.351Z,100218.52
2019-05-15T08:41:18.529Z,100229.10
2019-05-15T08:43:28.398Z,100223.39
2019-05-15T08:45:39.900Z,100221.25
2019-05-15T08:48:12.277Z,100213.87
2019-05-15T08:50:21.839Z,100213.48
2019-05-15T08:52:40.959Z,100206.17
2019-05-15T08:54:53.337Z,100205.94
2019-05-15T08:57:20.690Z,100206.47
2019-05-15T08:59:29.578Z,100211.41
2019-05-15T09:01:39.450Z,100207.84
2019-05-15T09:03:48.962Z,100202.53
2019-05-15T09:05:55.931Z,100206.50
2019-05-15T09:08:09.746Z,100199.48
2019-05-15T09:10:21.429Z,100207.38
2019-05-15T09:12:38.817Z,100202.45
2019-05-15T09:14:45.788Z,100198.09
2019-05-15T09:16:52.542Z,100193.27
2019-05-15T09:19:08.179Z,100199.00
2019-05-15T09:21:15.940Z,100193.28
2019-05-15T09:23:22.540Z,100189.37
2019-05-15T09:25:31.319Z,100181.94
2019-05-15T09:27:39.366Z,100186.84
2019-05-15T09:29:48.461Z,100180.23
2019-05-15T09:31:54.809Z,100170.92
2019-05-15T09:34:01.333Z,100183.75
2019-05-15T09:36:08.992Z,100170.14
2019-05-15T09:38:18.488Z,100169.76
2019-05-15T09:40:41.745Z,100163.20
2019-05-15T09:42:35.199Z,100161.01
2019-05-15T09:44:43.504Z,100161.47
2019-05-15T09:46:51.779Z,100165.45
2019-05-15T09:48:59.525Z,100160.98
2019-05-15T09:51:09.201Z,100161.00
2019-05-15T09:53:21.364Z,100160.98
2019-05-15T09:55:28.495Z,100164.50
2019-05-15T09:57:35.338Z,100162.31
2019-05-15T09:59:43.155Z,100164.06
2019-05-15T10:01:51.273Z,100162.74
2019-05-15T10:04:00.014Z,100173.30
2019-05-15T10:06:08.905Z,100173.28
2019-05-15T10:08:15.592Z,100170.61
2019-05-15T10:10:23.032Z,100168.84
2019-05-15T10:12:34.932Z,100171.43
2019-05-15T10:14:38.619Z,100169.63
2019-05-15T10:16:45.344Z,100169.21
2019-05-15T10:18:53.286Z,100168.34
2019-05-15T10:21:02.515Z,100166.99
2019-05-15T10:23:10.684Z,100167.84
2019-05-15T10:25:19.953Z,100170.48
2019-05-15T10:27:28.747Z,100166.01
2019-05-15T10:29:34.850Z,100158.94
2019-05-15T10:31:41.728Z,100160.66
2019-05-15T10:33:49.844Z,100165.97
2019-05-15T10:35:59.201Z,100168.23
2019-05-15T10:38:14.418Z,100158.50
2019-05-15T10:40:21.913Z,100160.30
2019-05-15T10:42:30.193Z,100153.69
2019-05-15T10:44:42.362Z,100151.05
2019-05-15T10:46:51.478Z,100154.56
2019-05-15T10:49:03.190Z,100147.91
2019-05-15T10:51:14.547Z,100145.70
2019-05-15T10:53:29.706Z,100147.92
2019-05-15T10:55:41.625Z,100148.38
2019-05-15T10:57:49.504Z,100139.56
2019-05-15T10:59:58.414Z,100143.05
2019-05-15T11:02:08.619Z,100137.31
2019-05-15T11:04:15.141Z,100137.39
2019-05-15T11:06:23.718Z,100135.59
2019-05-15T11:08:30.255Z,100136.91
2019-05-15T11:10:41.747Z,100139.13
2019-05-15T11:12:47.894Z,100131.20
2019-05-15T11:14:54.397Z,100130.78
2019-05-15T11:17:00.928Z,100125.47
2019-05-15T11:19:09.479Z,100122.82
2019-05-15T11:21:15.722Z,100127.27
2019-05-15T11:23:22.225Z,100118.86
2019-05-15T11:25:30.185Z,100114.89
2019-05-15T11:27:38.993Z,100116.25
2019-05-15T11:29:47.756Z,100106.53
2019-05-15T11:31:58.082Z,100106.98
2019-05-15T11:34:09.170Z,100108.72
2019-05-15T11:36:18.535Z,100103.45
2019-05-15T11:38:28.953Z,100092.88
2019-05-15T11:40:35.087Z,100091.08
2019-05-15T11:42:41.669Z,100091.11
2019-05-15T11:44:48.505Z,100094.66
2019-05-15T11:46:55.228Z,100089.41
2019-05-15T11:49:01.760Z,100092.48
2019-05-15T11:51:09.867Z,100091.17
2019-05-15T11:53:19.204Z,100095.13
2019-05-15T11:55:29.174Z,100092.00
2019-05-15T11:57:46.118Z,100102.98
2019-05-15T11:59:54.775Z,100097.70
2019-05-15T12:01:58.063Z,100098.13
2019-05-15T12:04:05.004Z,100101.61
2019-05-15T12:06:18.016Z,100101.55
2019-05-15T12:08:24.417Z,100103.70
2019-05-15T12:10:35.453Z,100099.73
2019-05-15T12:12:42.130Z,100099.30
2019-05-15T12:14:49.438Z,100090.52
2019-05-15T12:17:07.028Z,100088.80
2019-05-15T12:19:09.615Z,100076.49
2019-05-15T12:21:13.672Z,100084.03
2019-05-15T12:23:20.671Z,100076.14
2019-05-15T12:25:31.759Z,100070.87
2019-05-15T12:29:48.968Z,100076.15
2019-05-15T12:31:54.033Z,100066.41
2019-05-15T12:34:02.018Z,100066.41
2019-05-15T12:36:11.201Z,100062.47
2019-05-15T12:38:18.619Z,100058.08
2019-05-15T12:39:23.654Z,100071.33
2019-05-15T12:59:46.034Z,100033.37
2019-05-15T13:01:53.712Z,100029.83
2019-05-15T13:04:00.317Z,100024.54
2019-05-15T13:06:08.177Z,100025.42
2019-05-15T13:08:16.025Z,100025.42
2019-05-15T13:10:22.608Z,100027.17
2019-05-15T13:12:29.221Z,100031.59
2019-05-15T13:14:35.850Z,100026.73
2019-05-15T13:16:44.676Z,100019.25
2019-05-15T13:18:51.401Z,100016.18
2019-05-15T13:20:59.465Z,100013.58
2019-05-15T13:23:06.297Z,100008.73
2019-05-15T13:25:15.755Z,100006.95
2019-05-15T13:27:22.328Z,100010.94
2019-05-15T13:29:31.318Z,100007.86
2019-05-15T13:31:38.923Z,99997.73
2019-05-15T13:33:48.138Z,99996.86
2019-05-15T13:35:54.978Z,99996.88
2019-05-15T13:38:02.463Z,99990.30
2019-05-15T13:40:18.598Z,99993.37
2019-05-15T13:42:29.350Z,99985.91
2019-05-15T13:44:38.707Z,99981.92
2019-05-15T13:46:45.815Z,99984.58
2019-05-15T13:48:53.740Z,99981.47
2019-05-15T13:51:02.978Z,99981.94
2019-05-15T13:53:11.293Z,99977.05
2019-05-15T13:55:24.855Z,99977.91
2019-05-15T13:57:29.714Z,99972.17
2019-05-15T13:59:39.027Z,99969.55
2019-05-15T14:01:44.921Z,99971.75
2019-05-15T14:03:52.198Z,99962.46
2019-05-15T14:06:01.507Z,99959.41
2019-05-15T14:08:10.157Z,99961.60
2019-05-15T14:10:18.130Z,99958.96
2019-05-15T14:12:27.734Z,99960.30
2019-05-15T14:14:38.418Z,99954.16
2019-05-15T14:16:43.867Z,99953.27
2019-05-15T14:18:50.378Z,99954.59
2019-05-15T14:20:58.403Z,99948.44
2019-05-15T14:23:08.159Z,99952.86
2019-05-15T14:25:13.917Z,99948.89
2019-05-15T14:27:22.032Z,99954.16
2019-05-15T14:29:30.884Z,99952.41
2019-05-15T14:31:39.763Z,99952.41
2019-05-15T14:33:48.597Z,99950.64
2019-05-15T14:35:57.686Z,99952.86
2019-05-15T14:38:09.935Z,99952.86
2019-05-15T14:40:14.235Z,99955.08
2019-05-15T14:42:22.242Z,99944.48
2019-05-15T14:44:29.947Z,99944.92
2019-05-15T14:46:38.332Z,99944.47
2019-05-15T14:48:45.722Z,99946.72
2019-05-15T14:50:52.257Z,99939.66
2019-05-15T14:53:02.954Z,99941.84
2019-05-15T14:55:10.115Z,99932.14
2019-05-15T14:57:18.276Z,99933.47
2019-05-15T14:59:25.685Z,99934.35
2019-05-15T15:01:34.015Z,99930.82
2019-05-15T15:03:41.051Z,99935.69
2019-05-15T15:05:49.266Z,99937.42
2019-05-15T15:07:58.545Z,99932.13
2019-05-15T15:10:07.838Z,99934.34
2019-05-15T15:12:13.972Z,99932.13
2019-05-15T15:14:20.349Z,99930.36
2019-05-15T15:16:28.994Z,99930.37
2019-05-15T15:18:38.834Z,99930.81
2019-05-15T15:20:45.273Z,99927.28
2019-05-15T15:22:53.876Z,99922.83
2019-05-15T15:25:00.304Z,99930.78
2019-05-15T15:27:08.470Z,99915.77
2019-05-15T15:29:19.089Z,99919.73
2019-05-15T15:31:29.390Z,99923.27
2019-05-15T15:33:35.918Z,99920.62
2019-05-15T15:35:43.106Z,99914.44
2019-05-15T15:37:49.664Z,99914.00
2019-05-15T15:39:56.117Z,99914.44
2019-05-15T15:42:02.803Z,99912.67
2019-05-15T15:44:10.734Z,99913.56
2019-05-15T15:46:19.542Z,99905.13
2019-05-15T15:48:28.351Z,99911.31
2019-05-15T15:50:34.122Z,99912.20
2019-05-15T15:52:40.911Z,99907.78
2019-05-15T15:54:48.920Z,99905.98
2019-05-15T15:56:56.866Z,99911.72
2019-05-15T15:59:03.433Z,99915.26
2019-05-15T16:01:10.071Z,99902.00
2019-05-15T16:03:19.139Z,99905.94
2019-05-15T16:05:24.927Z,99903.28
2019-05-15T16:07:31.482Z,99905.04
2019-05-15T16:09:38.806Z,99904.12
2019-05-15T16:11:45.899Z,99907.64
2019-05-15T16:13:52.371Z,99902.34
2019-05-15T16:16:00.853Z,99897.03
2019-05-15T16:18:09.247Z,99902.73
2019-05-15T16:20:18.749Z,99896.98
2019-05-15T16:22:24.686Z,99899.62
2019-05-15T16:24:31.271Z,99898.28
2019-05-15T16:26:38.283Z,99897.80
2019-05-15T16:28:48.975Z,99898.69
2019-05-15T16:30:54.916Z,99893.80
2019-05-15T16:33:01.232Z,99900.38
2019-05-15T16:35:10.089Z,99893.28
2019-05-15T16:37:18.851Z,99895.46
2019-05-15T16:39:25.033Z,99897.20
2019-05-15T16:41:31.682Z,99897.15
2019-05-15T16:43:38.300Z,99898.88
2019-05-15T16:45:49.499Z,99897.98
2019-05-15T16:47:54.215Z,99900.13
2019-05-15T16:50:00.710Z,99899.69
2019-05-15T16:52:09.203Z,99904.53
2019-05-15T16:54:18.085Z,99894.80
2019-05-15T16:56:23.712Z,99893.91
2019-05-15T16:58:30.115Z,99893.47
2019-05-15T17:00:39.834Z,99895.67
2019-05-15T17:02:48.224Z,99896.50
2019-05-15T17:04:54.573Z,99899.59
2019-05-15T17:07:01.231Z,99900.92
2019-05-15T17:09:20.863Z,99897.82
2019-05-15T17:11:21.571Z,99897.80
2019-05-15T17:13:28.662Z,99896.47
2019-05-15T17:15:35.532Z,99898.25
2019-05-15T17:17:43.082Z,99903.09
2019-05-15T17:19:53.566Z,99900.45
2019-05-15T17:22:00.176Z,99901.77
2019-05-15T17:24:08.716Z,99900.45
2019-05-15T17:26:14.995Z,99900.44
2019-05-15T17:28:22.921Z,99899.12
2019-05-15T17:30:29.434Z,99893.36
2019-05-15T17:32:38.551Z,99895.58
2019-05-15T17:34:44.161Z,99898.23
2019-05-15T17:36:50.677Z,99898.66
2019-05-15T17:38:58.037Z,99901.27
2019-05-15T17:41:04.825Z,99907.89
2019-05-15T17:43:11.498Z,99908.34
2019-05-15T17:45:19.415Z,99905.69
2019-05-15T17:47:28.609Z,99908.34
2019-05-15T17:49:35.105Z,99897.71
2019-05-15T17:51:41.535Z,99903.47
2019-05-15T17:53:48.814Z,99900.36
2019-05-15T17:55:55.568Z,99901.68
2019-05-15T17:58:02.187Z,99910.53
2019-05-15T18:00:12.802Z,99910.95
2019-05-15T18:02:20.544Z,99922.48
2019-05-15T18:04:28.263Z,99929.12
2019-05-15T18:06:34.811Z,99926.45
2019-05-15T18:08:42.337Z,99923.78
2019-05-15T18:10:48.833Z,99926.00
2019-05-15T18:12:55.491Z,99924.23
2019-05-15T18:15:02.169Z,99922.89
2019-05-15T18:17:08.783Z,99923.33
2019-05-15T18:19:15.341Z,99924.66
2019-05-15T18:21:22.639Z,99922.00
2019-05-15T18:23:29.215Z,99924.17
2019-05-15T18:25:38.392Z,99922.84
2019-05-15T18:27:44.462Z,99930.36
2019-05-15T18:29:50.896Z,99933.00
2019-05-15T18:31:57.490Z,99925.91
2019-05-15T18:34:04.138Z,99931.66
2019-05-15T18:36:10.680Z,99936.53
2019-05-15T18:38:19.133Z,99943.17
2019-05-15T18:40:27.809Z,99936.53
2019-05-15T18:42:34.860Z,99935.20
2019-05-15T18:44:41.321Z,99930.78
2019-05-15T18:46:48.710Z,99929.45
2019-05-15T18:48:57.933Z,99929.45
2019-05-15T18:51:04.805Z,99930.33
2019-05-15T18:53:12.138Z,99934.77
2019-05-15T18:55:19.114Z,99926.36
2019-05-15T18:57:25.676Z,99923.27
2019-05-15T18:59:32.106Z,99922.83
2019-05-15T19:01:39.338Z,99920.61
2019-05-15T19:03:47.523Z,99928.15
2019-05-15T19:05:54.121Z,99928.15
2019-05-15T19:08:04.462Z,99921.50
2019-05-15T19:10:19.768Z,99922.39
2019-05-15T19:12:28.303Z,99919.30
2019-05-15T19:14:36.261Z,99915.31
2019-05-15T19:16:42.621Z,99911.32
2019-05-15T19:18:49.177Z,99898.04
2019-05-15T19:20:55.655Z,99899.37
2019-05-15T19:23:02.155Z,99901.58
2019-05-15T19:25:09.228Z,99891.39
2019-05-15T19:27:15.846Z,99898.48
2019-05-15T19:29:22.342Z,99895.38
2019-05-15T19:31:30.644Z,99892.72
2019-05-15T19:33:40.874Z,99895.88
2019-05-15T19:35:47.616Z,99897.60
2019-05-15T19:37:53.909Z,99888.73
2019-05-15T19:40:00.526Z,99897.16
2019-05-15T19:42:08.932Z,99894.48
2019-05-15T19:44:17.985Z,99901.58
2019-05-15T19:46:28.298Z,99910.44
2019-05-15T19:48:34.596Z,99907.78
2019-05-15T19:50:41.211Z,99920.18
2019-05-15T19:52:48.210Z,99915.74
2019-05-15T19:54:54.994Z,99913.50
2019-05-15T19:57:01.479Z,99905.09
2019-05-15T19:59:08.778Z,99901.55
2019-05-15T20:01:15.596Z,99909.07
2019-05-15T20:03:22.201Z,99894.45
2019-05-15T20:05:29.238Z,99889.13
2019-05-15T20:07:38.667Z,99878.95
2019-05-15T20:09:44.733Z,99884.72
2019-05-15T20:11:51.307Z,99881.64
2019-05-15T20:13:58.281Z,99882.98
2019-05-15T20:16:06.219Z,99893.66
2019-05-15T20:18:12.839Z,99887.47
2019-05-15T20:20:19.828Z,99894.56
2019-05-15T20:22:28.397Z,99887.03
2019-05-15T20:24:35.194Z,99888.37
2019-05-15T20:26:41.736Z,99878.63
2019-05-15T20:28:48.451Z,99873.75
2019-05-15T20:30:54.987Z,99881.28
2019-05-15T20:33:01.679Z,99880.83
2019-05-15T20:35:09.406Z,99869.32
2019-05-15T20:37:18.275Z,99867.53
2019-05-15T20:39:24.679Z,99868.44
2019-05-15T20:41:31.230Z,99873.31
2019-05-15T20:43:38.432Z,99859.58
2019-05-15T20:45:45.198Z,99854.25
2019-05-15T20:47:52.934Z,99855.53
2019-05-15T20:49:59.656Z,99853.31
2019-05-15T20:52:06.333Z,99861.73
2019-05-15T20:54:14.052Z,99860.83
2019-05-15T20:56:20.667Z,99853.73
2019-05-15T20:58:27.441Z,99851.08
2019-05-15T21:00:34.054Z,99849.30
2019-05-15T21:02:42.852Z,99848.42
2019-05-15T21:04:49.316Z,99849.30
2019-05-15T21:06:55.874Z,99834.69
2019-05-15T21:09:02.452Z,99827.59
2019-05-15T21:11:11.854Z,99823.61
2019-05-15T21:13:17.967Z,99823.16
2019-05-15T21:15:25.889Z,99819.17
2019-05-15T21:17:32.522Z,99809.87
2019-05-15T21:19:42.450Z,99808.99
2019-05-15T21:21:49.000Z,99809.87
2019-05-15T21:23:55.679Z,99803.69
2019-05-15T21:26:02.203Z,99804.58
2019-05-15T21:28:08.742Z,99815.21
2019-05-15T21:30:20.400Z,99817.87
2019-05-15T21:32:28.522Z,99801.94
2019-05-15T21:34:40.661Z,99817.44
2019-05-15T21:36:43.954Z,99811.22
2019-05-15T21:38:53.618Z,99803.23
2019-05-15T21:41:00.411Z,99802.80
2019-05-15T21:43:08.805Z,99806.34
2019-05-15T21:45:17.687Z,99797.49
2019-05-15T21:47:23.920Z,99798.36
2019-05-15T21:49:30.597Z,99798.81
2019-05-15T21:51:38.423Z,99792.16
2019-05-15T21:53:45.266Z,99794.82
2019-05-15T21:55:51.804Z,99782.87
2019-05-15T21:57:59.988Z,99779.77
2019-05-15T22:00:18.069Z,99774.46
2019-05-15T22:02:29.202Z,99775.35
2019-05-15T22:04:49.159Z,99770.50
2019-05-15T22:06:44.053Z,99767.83
2019-05-15T22:08:50.833Z,99771.38
2019-05-15T22:10:58.831Z,99765.17
2019-05-15T22:13:06.144Z,99773.59
2019-05-15T22:15:12.934Z,99771.38
2019-05-15T22:17:20.830Z,99774.48
2019-05-15T22:19:30.229Z,99773.16
2019-05-15T22:21:40.286Z,99772.27
2019-05-15T22:23:44.253Z,99768.73
2019-05-15T22:25:51.483Z,99774.92
2019-05-15T22:27:58.108Z,99767.40
2019-05-15T22:30:08.279Z,99762.97
2019-05-15T22:32:15.419Z,99760.74
2019-05-15T22:34:22.039Z,99762.52
2019-05-15T22:36:28.632Z,99762.53
2019-05-15T22:38:35.102Z,99760.74
2019-05-15T22:40:42.554Z,99760.74
2019-05-15T22:42:50.099Z,99756.74
2019-05-15T22:44:58.167Z,99752.73
2019-05-15T22:47:04.807Z,99749.66
2019-05-15T22:49:11.404Z,99747.00
2019-05-15T22:51:18.515Z,99747.86
2019-05-15T22:53:25.220Z,99745.62
2019-05-15T22:55:31.915Z,99746.07
2019-05-15T22:57:38.954Z,99739.86
2019-05-15T22:59:45.813Z,99740.74
2019-05-15T23:01:52.318Z,99737.64
2019-05-15T23:03:58.928Z,99729.66
2019-05-15T23:06:05.577Z,99733.20
2019-05-15T23:08:12.838Z,99724.35
2019-05-15T23:10:19.447Z,99721.26
2019-05-15T23:12:26.072Z,99726.57
2019-05-15T23:14:32.577Z,99729.68
2019-05-15T23:16:39.294Z,99729.68
2019-05-15T23:18:48.027Z,99723.91
2019-05-15T23:20:54.139Z,99726.14
2019-05-15T23:23:00.756Z,99724.38
2019-05-15T23:25:08.459Z,99727.03
2019-05-15T23:27:15.060Z,99726.59
2019-05-15T23:29:21.494Z,99731.45
2019-05-15T23:31:28.139Z,99728.37
2019-05-15T23:33:34.907Z,99728.35
2019-05-15T23:35:42.483Z,99729.68
2019-05-15T23:37:50.123Z,99730.56
2019-05-15T23:39:57.993Z,99729.66
2019-05-15T23:42:04.571Z,99723.91
2019-05-15T23:44:11.138Z,99723.02
2019-05-15T23:46:18.382Z,99718.59
2019-05-15T23:48:25.252Z,99715.00
2019-05-15T23:50:31.811Z,99719.47
2019-05-15T23:52:38.669Z,99718.53
2019-05-15T23:54:45.331Z,99713.22
2019-05-15T23:56:51.914Z,99719.47
2019-05-15T23:58:58.313Z,99722.08
